| time (UTC) | temp F | wind direction | speed MPH | gust MPH | rain 1hr in | rain 24hr in | rain mn in | humidity % | barometer mb |
| 20260904103033 | 84 | 160 | 0.0 | 5.0 | 0.00 | 0.00 | 0.00 | 81 | 1016.3 |
| 20260904101534 | 85 | 135 | 0.0 | 6.0 | 0.00 | 0.00 | 0.00 | 82 | 1016.2 |
| 20260904100041 | 85 | 108 | 4.0 | 10.0 | 0.00 | 0.00 | 0.00 | 84 | 1016.1 |
| 20260904094532 | 85 | 137 | 2.0 | 7.0 | 0.00 | 0.00 | 0.00 | 85 | 1015.9 |
| 20260904093044 | 85 | 145 | 4.0 | 11.0 | 0.00 | 0.00 | 0.00 | 83 | 1015.9 |
| 20260904091535 | 85 | 94 | 4.0 | 9.0 | 0.00 | 0.00 | 0.00 | 85 | 1015.7 |
| 20260904090031 | 85 | 0 | 0.0 | 5.0 | 0.00 | 0.00 | 0.00 | 85 | 1015.7 |
| 20260904084534 | 85 | 121 | 1.0 | 5.0 | 0.00 | 0.00 | 0.00 | 84 | 1015.5 |
| 20260904083033 | 85 | 129 | 2.0 | 9.0 | 0.00 | 0.00 | 0.00 | 84 | 1015.7 |
| 20260904081536 | 85 | 160 | 2.0 | 7.0 | 0.00 | 0.00 | 0.00 | 84 | 1015.7 |
| 20260904080033 | 85 | 148 | 2.0 | 7.0 | 0.00 | 0.00 | 0.00 | 84 | 1015.6 |
| 20260904074538 | 85 | 128 | 1.0 | 8.0 | 0.00 | 0.00 | 0.00 | 85 | 1015.5 |
| 20260904073031 | 85 | 113 | 2.0 | 6.0 | 0.00 | 0.00 | 0.00 | 85 | 1015.6 |
| 20260904071535 | 85 | 0 | 1.0 | 6.0 | 0.00 | 0.00 | 0.00 | 84 | 1015.5 |
| 20260904070043 | 85 | 186 | 0.0 | 3.0 | 0.00 | 0.00 | 0.00 | 85 | 1015.6 |
| 20260904064538 | 85 | 141 | 0.0 | 4.0 | 0.00 | 0.00 | 0.00 | 85 | 1015.7 |
| 20260904063037 | 85 | 175 | 1.0 | 4.0 | 0.00 | 0.00 | 0.00 | 84 | 1015.8 |
| 20260904061545 | 85 | 198 | 0.0 | 4.0 | 0.00 | 0.00 | 0.00 | 83 | 1015.9 |
| 20260904060036 | 85 | 121 | 1.0 | 4.0 | 0.00 | 0.00 | 0.00 | 84 | 1016.1 |
| 20260904054534 | 85 | 145 | 2.0 | 6.0 | 0.00 | 0.01 | 0.00 | 84 | 1016.2 |
| 20260904053034 | 85 | 113 | 0.0 | 6.0 | 0.00 | 0.01 | 0.00 | 84 | 1016.2 |
| 20260904051538 | 86 | 110 | 3.0 | 11.0 | 0.00 | 0.01 | 0.00 | 84 | 1016.4 |
| 20260904050032 | 86 | 160 | 1.0 | 9.0 | 0.00 | 0.01 | 0.00 | 81 | 1016.5 |
| 20260904044536 | 86 | 115 | 3.0 | 9.0 | 0.00 | 0.38 | 0.00 | 80 | 1016.7 |
| 20260904043035 | 86 | 122 | 1.0 | 7.0 | 0.00 | 0.38 | 0.00 | 81 | 1016.8 |
| 20260904041537 | 85 | 111 | 2.0 | 8.0 | 0.00 | 0.38 | 0.00 | 81 | 1016.8 |
| 20260904040035 | 85 | 190 | 1.0 | 5.0 | 0.00 | 0.38 | 0.00 | 81 | 1016.8 |
| 20260904034546 | 85 | 115 | 1.0 | 4.0 | 0.00 | 0.38 | 0.38 | 81 | 1017.0 |
| 20260904033033 | 85 | 89 | 2.0 | 6.0 | 0.00 | 0.38 | 0.38 | 82 | 1017.1 |
| 20260904031537 | 85 | 128 | 1.0 | 5.0 | 0.00 | 0.38 | 0.38 | 84 | 1017.1 |
| 20260904030035 | 85 | 0 | 0.0 | 4.0 | 0.00 | 0.38 | 0.38 | 84 | 1017.3 |
| 20260904024533 | 85 | 0 | 0.0 | 4.0 | 0.00 | 0.38 | 0.38 | 84 | 1017.1 |
| 20260904023034 | 85 | 0 | 0.0 | 3.0 | 0.00 | 0.38 | 0.38 | 83 | 1017.0 |
| 20260904021530 | 85 | 0 | 0.0 | 3.0 | 0.00 | 0.38 | 0.38 | 83 | 1017.0 |
| 20260904020034 | 85 | 0 | 0.0 | 2.0 | 0.00 | 0.38 | 0.38 | 83 | 1017.1 |
| 20260904014534 | 85 | 129 | 0.0 | 1.0 | 0.00 | 0.38 | 0.38 | 82 | 1017.1 |
| 20260904013035 | 84 | 0 | 0.0 | 1.0 | 0.00 | 0.38 | 0.38 | 81 | 1017.1 |
| 20260904011556 | 84 | 0 | 0.0 | 1.0 | 0.00 | 0.38 | 0.38 | 80 | 1017.0 |
| 20260904010033 | 84 | 0 | 0.0 | 1.0 | 0.00 | 0.38 | 0.38 | 80 | 1016.8 |
| 20260904004534 | 84 | 0 | 0.0 | 0.0 | 0.00 | 0.38 | 0.38 | 80 | 1016.6 |
| 20260904003034 | 84 | 0 | 0.0 | 0.0 | 0.00 | 0.38 | 0.38 | 80 | 1016.6 |
| 20260904001534 | 83 | 0 | 0.0 | 1.0 | 0.00 | 0.38 | 0.38 | 81 | 1016.4 |
| 20260904000042 | 84 | 0 | 0.0 | 0.0 | 0.00 | 0.38 | 0.38 | 80 | 1016.3 |
| 20260903234540 | 84 | 0 | 0.0 | 0.0 | 0.00 | 0.38 | 0.38 | 80 | 1016.3 |
| 20260903233036 | 84 | 0 | 0.0 | 1.0 | 0.00 | 0.38 | 0.38 | 80 | 1016.1 |
| 20260903231533 | 84 | 0 | 0.0 | 1.0 | 0.00 | 0.38 | 0.38 | 81 | 1016.0 |
| 20260903230042 | 84 | 0 | 0.0 | 1.0 | 0.00 | 0.38 | 0.38 | 78 | 1016.1 |
| 20260903224532 | 84 | 0 | 0.0 | 1.0 | 0.00 | 0.38 | 0.38 | 78 | 1016.0 |
| 20260903223036 | 83 | 0 | 0.0 | 1.0 | 0.00 | 0.38 | 0.38 | 79 | 1015.9 |
| 20260903221535 | 83 | 0 | 0.0 | 1.0 | 0.00 | 0.38 | 0.38 | 78 | 1015.9 |
| 20260903220039 | 84 | 0 | 1.0 | 4.0 | 0.00 | 0.38 | 0.38 | 77 | 1016.0 |
| 20260903214541 | 84 | 311 | 0.0 | 4.0 | 0.00 | 0.38 | 0.38 | 77 | 1015.9 |
| 20260903213037 | 84 | 145 | 0.0 | 10.0 | 0.00 | 0.38 | 0.38 | 77 | 1015.5 |
| 20260903211535 | 86 | 258 | 6.0 | 15.0 | 0.00 | 0.38 | 0.38 | 77 | 1016.0 |
| 20260903210037 | 89 | 0 | 1.0 | 7.0 | 0.00 | 0.38 | 0.38 | 76 | 1015.6 |
| 20260903204534 | 90 | 108 | 4.0 | 10.0 | 0.00 | 0.38 | 0.38 | 74 | 1015.3 |
| 20260903203052 | 91 | 143 | 6.0 | 14.0 | 0.00 | 0.38 | 0.38 | 73 | 1015.2 |
| 20260903201539 | 91 | 130 | 4.0 | 10.0 | 0.00 | 0.38 | 0.38 | 75 | 1014.8 |
| 20260903200037 | 91 | 161 | 5.0 | 9.0 | 0.00 | 0.38 | 0.38 | 73 | 1015.3 |
| 20260903194537 | 91 | 144 | 3.0 | 9.0 | 0.00 | 0.71 | 0.38 | 74 | 1015.4 |
| 20260903193040 | 91 | 108 | 5.0 | 10.0 | 0.00 | 0.71 | 0.38 | 75 | 1015.6 |
| 20260903191534 | 91 | 146 | 4.0 | 12.0 | 0.00 | 0.71 | 0.38 | 75 | 1015.7 |
| 20260903190035 | 91 | 109 | 4.0 | 12.0 | 0.00 | 0.71 | 0.38 | 75 | 1015.4 |
| 20260903184535 | 91 | 104 | 3.0 | 12.0 | 0.00 | 0.74 | 0.38 | 75 | 1015.6 |
| 20260903183039 | 90 | 124 | 5.0 | 13.0 | 0.00 | 0.74 | 0.38 | 77 | 1015.5 |
| 20260903181559 | 91 | 121 | 6.0 | 11.0 | 0.00 | 0.74 | 0.38 | 73 | 1015.6 |
| 20260903180037 | 92 | 130 | 2.0 | 10.0 | 0.00 | 0.74 | 0.38 | 74 | 1015.8 |
| 20260903174535 | 91 | 7 | 4.0 | 10.0 | 0.00 | 0.74 | 0.38 | 73 | 1016.2 |
| 20260903173034 | 92 | 148 | 3.0 | 10.0 | 0.00 | 0.74 | 0.38 | 72 | 1016.4 |
| 20260903171553 | 92 | 124 | 3.0 | 9.0 | 0.00 | 0.74 | 0.38 | 73 | 1016.3 |
| 20260903170036 | 91 | 154 | 5.0 | 9.0 | 0.00 | 0.74 | 0.38 | 72 | 1016.8 |
| 20260903164536 | 91 | 225 | 5.0 | 11.0 | 0.00 | 0.78 | 0.38 | 72 | 1017.1 |
| 20260903163034 | 91 | 115 | 5.0 | 9.0 | 0.00 | 0.78 | 0.38 | 71 | 1017.1 |
| 20260903161535 | 91 | 132 | 3.0 | 10.0 | 0.00 | 0.78 | 0.38 | 72 | 1017.3 |
| 20260903160036 | 91 | 147 | 4.0 | 9.0 | 0.00 | 0.78 | 0.38 | 71 | 1017.5 |
| 20260903154538 | 91 | 219 | 5.0 | 11.0 | 0.00 | 0.94 | 0.38 | 73 | 1017.7 |
| 20260903153035 | 91 | 139 | 2.0 | 8.0 | 0.00 | 0.94 | 0.38 | 73 | 1017.5 |
| 20260903151534 | 90 | 137 | 3.0 | 8.0 | 0.00 | 0.94 | 0.38 | 73 | 1017.4 |
| 20260903150034 | 91 | 131 | 3.0 | 5.0 | 0.00 | 0.94 | 0.38 | 75 | 1017.3 |
| 20260903144543 | 90 | 141 | 1.0 | 9.0 | 0.00 | 0.94 | 0.38 | 76 | 1017.1 |
| 20260903143044 | 89 | 141 | 4.0 | 7.0 | 0.00 | 0.94 | 0.38 | 76 | 1017.0 |
| 20260903141535 | 90 | 143 | 0.0 | 5.0 | 0.00 | 0.94 | 0.38 | 77 | 1016.8 |
| 20260903140042 | 88 | 190 | 1.0 | 6.0 | 0.00 | 0.94 | 0.38 | 82 | 1017.0 |
| 20260903134531 | 87 | 124 | 2.0 | 4.0 | 0.00 | 0.94 | 0.38 | 81 | 1016.8 |
| 20260903133033 | 87 | 146 | 0.0 | 3.0 | 0.00 | 0.94 | 0.38 | 84 | 1016.8 |
| 20260903131535 | 87 | 150 | 1.0 | 2.0 | 0.00 | 0.94 | 0.38 | 86 | 1016.7 |
| 20260903130036 | 86 | 0 | 0.0 | 1.0 | 0.00 | 0.94 | 0.38 | 89 | 1016.6 |
| 20260903124533 | 84 | 0 | 0.0 | 0.0 | 0.00 | 0.94 | 0.38 | 93 | 1016.9 |
| 20260903123035 | 82 | 0 | 0.0 | 4.0 | 0.00 | 0.94 | 0.38 | 96 | 1016.8 |
| 20260903121537 | 81 | 0 | 0.0 | 1.0 | 0.00 | 0.94 | 0.38 | 99 | 1016.7 |
| 20260903120045 | 78 | 0 | 0.0 | 1.0 | 0.00 | 0.94 | 0.38 | 99 | 1016.4 |
| 20260903114534 | 78 | 0 | 0.0 | 2.0 | 0.00 | 0.94 | 0.38 | 100 | 1016.4 |
| 20260903113058 | 78 | 0 | 0.0 | 1.0 | 0.00 | 0.94 | 0.38 | 100 | 1016.4 |
| 20260903111532 | 78 | 0 | 0.0 | 0.0 | 0.00 | 0.94 | 0.38 | 100 | 1016.0 |
| 20260903110033 | 78 | 0 | 0.0 | 0.0 | 0.00 | 0.94 | 0.38 | 100 | 1015.6 |
| 20260903104552 | 77 | 0 | 0.0 | 0.0 | 0.00 | 0.94 | 0.38 | 100 | 1015.4 |